Time;durP1;ratioP1;P1;durP2;ratioP2;P2;SDS_P1;SDS_P2;PMS_P1;PMS_P2;Temp;Humidity;BMP_temperature;BMP_pressure;BME280_temperature;BME280_humidity;BME280_pressure;Samples;Min_cycle;Max_cycle;Signal;HPM_P1;HPM_P2
2023/08/15 00:01:25;;;;;;;10.63;6.28;;;19.10;99.90;;;;;;5019914;28;20455;-79
2023/08/15 00:03:51;;;;;;;11.15;6.47;;;18.90;99.90;;;;;;5042948;28;20417;-78
2023/08/15 00:06:20;;;;;;;12.25;7.05;;;18.90;99.90;;;;;;5052424;28;20469;-78
2023/08/15 00:08:45;;;;;;;9.93;6.20;;;18.90;99.90;;;;;;5022252;28;20448;-78
2023/08/15 00:11:11;;;;;;;9.55;6.80;;;19.00;99.90;;;;;;5055938;28;20800;-78
2023/08/15 00:13:37;;;;;;;10.82;7.00;;;19.00;99.90;;;;;;5046866;28;20442;-77
2023/08/15 00:16:03;;;;;;;11.85;7.20;;;19.10;99.90;;;;;;5070162;28;20427;-77
2023/08/15 00:18:28;;;;;;;13.00;7.30;;;18.90;99.90;;;;;;5051594;28;20413;-79
2023/08/15 00:20:54;;;;;;;10.87;7.57;;;19.00;99.90;;;;;;5037200;28;20517;-78
2023/08/15 00:23:20;;;;;;;14.23;8.75;;;19.10;99.90;;;;;;5050373;28;20409;-78
2023/08/15 00:25:46;;;;;;;13.90;8.50;;;18.60;99.90;;;;;;5038868;28;20512;-77
2023/08/15 00:28:11;;;;;;;14.52;8.52;;;19.00;99.90;;;;;;5046836;28;20430;-77
2023/08/15 00:30:37;;;;;;;13.30;8.57;;;19.00;99.90;;;;;;5054115;28;20400;-77
2023/08/15 00:33:03;;;;;;;14.20;8.88;;;18.90;99.90;;;;;;5036315;28;20505;-78
2023/08/15 00:35:29;;;;;;;13.63;9.17;;;18.90;99.90;;;;;;5033584;28;20512;-79
2023/08/15 00:37:54;;;;;;;13.07;9.02;;;18.80;99.90;;;;;;5048466;28;20430;-79
2023/08/15 00:40:20;;;;;;;15.00;9.48;;;19.10;99.90;;;;;;5055028;28;20496;-79
2023/08/15 00:42:46;;;;;;;18.97;8.97;;;19.20;99.90;;;;;;5044638;28;20483;-79
2023/08/15 00:45:11;;;;;;;14.83;8.97;;;19.20;99.90;;;;;;5032957;28;20423;-78
2023/08/15 00:47:38;;;;;;;14.60;9.10;;;19.20;99.90;;;;;;5045770;28;20453;-78
2023/08/15 00:50:07;;;;;;;14.98;9.55;;;19.10;99.90;;;;;;5074738;28;20394;-78
2023/08/15 00:52:33;;;;;;;14.53;9.23;;;19.10;99.90;;;;;;5035399;28;20421;-77
2023/08/15 00:55:00;;;;;;;14.32;9.55;;;18.90;99.90;;;;;;5037748;28;20404;-78
2023/08/15 00:57:25;;;;;;;14.98;9.65;;;18.80;99.90;;;;;;5044919;28;20464;-78
2023/08/15 00:59:51;;;;;;;17.10;10.07;;;18.90;99.90;;;;;;5018713;28;20452;-78
2023/08/15 01:02:17;;;;;;;14.90;9.63;;;19.20;99.90;;;;;;5038988;28;20945;-78
2023/08/15 01:04:43;;;;;;;15.32;9.38;;;19.00;99.90;;;;;;5028692;28;20922;-77
2023/08/15 01:07:10;;;;;;;12.23;9.85;;;18.90;99.90;;;;;;5042199;28;20929;-78
2023/08/15 01:09:36;;;;;;;18.53;9.93;;;19.10;99.90;;;;;;5061745;28;20429;-77
2023/08/15 01:12:05;;;;;;;15.00;10.80;;;18.80;99.90;;;;;;5054409;28;20423;-77
2023/08/15 01:14:49;;;;;;;14.90;10.68;;;19.10;99.90;;;;;;5050316;28;20420;-77
2023/08/15 01:17:19;;;;;;;17.00;10.98;;;19.10;99.90;;;;;;5048697;28;20453;-78
2023/08/15 01:19:48;;;;;;;18.33;11.00;;;19.10;99.90;;;;;;5018407;28;20409;-78
2023/08/15 01:22:20;;;;;;;14.90;11.13;;;19.10;99.90;;;;;;5036847;28;20425;-78
2023/08/15 01:24:46;;;;;;;16.35;10.35;;;18.90;99.90;;;;;;5067563;28;20907;-78
2023/08/15 01:27:12;;;;;;;18.75;11.23;;;18.90;99.90;;;;;;5036026;28;20954;-78
2023/08/15 01:29:38;;;;;;;16.40;10.90;;;18.80;99.90;;;;;;5034614;28;20417;-78
2023/08/15 01:32:04;;;;;;;18.27;11.40;;;18.70;99.90;;;;;;5027576;28;20416;-78
2023/08/15 01:34:35;;;;;;;15.60;10.98;;;19.00;99.90;;;;;;5046763;28;20917;-78
2023/08/15 01:37:08;;;;;;;17.30;11.50;;;19.00;99.90;;;;;;5037962;28;20471;-78
2023/08/15 01:39:36;;;;;;;16.10;11.05;;;19.00;99.90;;;;;;5021396;28;20417;-78
2023/08/15 01:42:03;;;;;;;16.77;11.43;;;19.00;99.90;;;;;;5059715;28;20469;-78
2023/08/15 01:44:31;;;;;;;16.13;11.40;;;19.00;99.90;;;;;;5067430;28;20428;-78
2023/08/15 01:46:57;;;;;;;16.15;10.90;;;18.80;99.90;;;;;;5045281;28;20425;-78
2023/08/15 01:49:23;;;;;;;16.98;11.38;;;18.80;99.90;;;;;;5038671;28;20420;-78
2023/08/15 01:51:49;;;;;;;17.35;11.68;;;18.80;99.90;;;;;;5031777;28;20506;-78
2023/08/15 01:54:15;;;;;;;16.95;11.52;;;18.60;99.90;;;;;;5031129;28;20432;-78
2023/08/15 01:56:41;;;;;;;16.05;11.50;;;18.70;99.90;;;;;;5038317;28;20409;-79
2023/08/15 01:59:08;;;;;;;17.33;11.23;;;18.80;99.90;;;;;;5016609;28;20407;-77
2023/08/15 02:01:34;;;;;;;18.02;11.18;;;18.80;99.90;;;;;;5040233;28;20490;-78
2023/08/15 02:03:59;;;;;;;16.23;11.13;;;18.70;99.90;;;;;;5038737;28;20563;-78
2023/08/15 02:06:25;;;;;;;15.90;10.83;;;19.10;99.90;;;;;;5036714;28;20791;-78
2023/08/15 02:08:51;;;;;;;18.08;11.80;;;18.80;99.90;;;;;;5041134;28;20399;-78
2023/08/15 02:11:16;;;;;;;15.93;11.60;;;18.90;99.90;;;;;;5035421;28;20415;-77
2023/08/15 02:13:42;;;;;;;15.73;11.53;;;17.40;99.90;;;;;;5037075;28;20460;-77
2023/08/15 02:16:08;;;;;;;17.33;11.73;;;19.00;99.90;;;;;;5033753;28;20458;-78
2023/08/15 02:18:33;;;;;;;16.20;11.65;;;18.90;99.90;;;;;;5035318;28;20409;-78
2023/08/15 02:20:59;;;;;;;17.55;11.80;;;19.00;99.90;;;;;;5020639;28;20409;-78
2023/08/15 02:23:25;;;;;;;20.70;12.37;;;18.80;99.90;;;;;;5042146;28;20416;-78
2023/08/15 02:25:50;;;;;;;16.13;11.80;;;19.00;99.90;;;;;;5046626;28;20500;-79
2023/08/15 02:28:16;;;;;;;16.38;12.20;;;18.80;99.90;;;;;;5046895;28;20520;-79
2023/08/15 02:30:42;;;;;;;17.90;12.20;;;18.80;99.90;;;;;;5052561;28;20417;-79
2023/08/15 02:33:08;;;;;;;18.77;12.37;;;18.80;99.90;;;;;;5036348;28;20442;-77
2023/08/15 02:35:37;;;;;;;16.90;12.57;;;18.80;99.90;;;;;;5056020;28;20416;-78
2023/08/15 02:38:03;;;;;;;16.52;12.85;;;18.70;99.90;;;;;;5044613;28;20979;-78
2023/08/15 02:40:29;;;;;;;16.23;12.90;;;18.90;99.90;;;;;;5033859;28;20424;-77
2023/08/15 02:42:55;;;;;;;16.13;12.95;;;18.50;99.90;;;;;;5024614;28;20421;-78
2023/08/15 02:45:20;;;;;;;18.67;12.93;;;18.60;99.90;;;;;;5048363;28;20986;-78
2023/08/15 02:47:46;;;;;;;18.77;13.63;;;18.50;99.90;;;;;;5019220;28;20437;-78
2023/08/15 02:50:12;;;;;;;19.73;13.85;;;18.40;99.90;;;;;;5055702;28;20439;-78
2023/08/15 02:52:38;;;;;;;18.67;14.20;;;18.50;99.90;;;;;;5054796;28;20428;-78
2023/08/15 02:55:04;;;;;;;17.25;13.75;;;18.50;99.90;;;;;;5029348;28;20446;-78
2023/08/15 02:57:30;;;;;;;20.30;14.35;;;18.40;99.90;;;;;;5040479;28;20952;-77
2023/08/15 02:59:56;;;;;;;18.20;14.60;;;18.60;99.90;;;;;;5056973;28;20486;-79
2023/08/15 03:02:22;;;;;;;21.02;14.93;;;18.20;99.90;;;;;;5024904;28;20506;-78
2023/08/15 03:04:48;;;;;;;18.70;14.65;;;18.30;99.90;;;;;;5045613;28;20417;-78
2023/08/15 03:07:14;;;;;;;17.80;14.37;;;18.00;99.90;;;;;;5028070;28;20619;-78
2023/08/15 03:09:39;;;;;;;18.08;13.27;;;18.00;99.90;;;;;;5037586;28;20436;-77
2023/08/15 03:12:05;;;;;;;16.83;13.70;;;18.10;99.90;;;;;;5040915;28;20400;-77
2023/08/15 03:14:31;;;;;;;19.63;13.80;;;18.30;99.90;;;;;;5061124;28;20432;-78
2023/08/15 03:16:57;;;;;;;17.97;13.20;;;18.30;99.90;;;;;;5020178;28;20425;-77
2023/08/15 03:19:22;;;;;;;18.87;13.10;;;18.30;99.90;;;;;;5041483;28;20421;-77
2023/08/15 03:21:48;;;;;;;16.23;13.20;;;18.40;99.90;;;;;;5018672;28;20409;-78
2023/08/15 03:24:15;;;;;;;18.88;13.13;;;18.20;99.90;;;;;;5037647;28;20419;-78
2023/08/15 03:26:42;;;;;;;15.55;12.48;;;19.10;99.90;;;;;;5036320;28;20501;-78
2023/08/15 03:29:08;;;;;;;17.23;12.63;;;18.50;99.90;;;;;;5043686;28;20431;-78
2023/08/15 03:31:33;;;;;;;17.30;12.63;;;18.40;99.90;;;;;;5039494;28;20423;-77
2023/08/15 03:34:00;;;;;;;22.10;13.13;;;18.50;99.90;;;;;;5064901;28;20417;-77
2023/08/15 03:36:25;;;;;;;17.20;12.30;;;18.20;99.90;;;;;;5048702;28;20792;-76
2023/08/15 03:38:52;;;;;;;15.47;12.27;;;18.50;99.90;;;;;;5054373;28;20424;-78
2023/08/15 03:41:18;;;;;;;17.42;12.18;;;18.60;99.90;;;;;;5047517;28;20480;-78
2023/08/15 03:43:44;;;;;;;17.42;12.45;;;18.50;99.90;;;;;;5039766;28;20504;-78
2023/08/15 03:46:10;;;;;;;16.40;12.35;;;18.50;99.90;;;;;;5019969;28;20916;-77
2023/08/15 03:48:36;;;;;;;18.08;12.52;;;18.60;99.90;;;;;;5035943;28;20905;-78
2023/08/15 03:51:02;;;;;;;15.57;12.45;;;18.50;99.90;;;;;;5022599;28;20413;-78
2023/08/15 03:53:28;;;;;;;15.68;12.00;;;18.40;99.90;;;;;;5041227;28;20551;-78
2023/08/15 03:55:54;;;;;;;15.85;11.95;;;18.40;99.90;;;;;;5048090;28;20795;-78
2023/08/15 03:58:21;;;;;;;18.23;12.50;;;18.50;99.90;;;;;;5048377;28;20422;-78
2023/08/15 04:00:48;;;;;;;17.10;12.67;;;18.50;99.90;;;;;;5051710;28;20504;-79
2023/08/15 04:03:14;;;;;;;16.35;12.48;;;18.40;99.90;;;;;;5024108;28;20461;-79
2023/08/15 04:05:44;;;;;;;17.25;12.27;;;18.40;99.90;;;;;;5033100;28;20427;-77
2023/08/15 04:08:10;;;;;;;15.85;12.40;;;18.40;99.90;;;;;;5047817;28;20921;-77
2023/08/15 04:10:39;;;;;;;17.87;12.83;;;18.30;99.90;;;;;;5046449;28;20427;-77
2023/08/15 04:13:09;;;;;;;19.27;12.30;;;18.40;99.90;;;;;;5048736;28;20938;-78
2023/08/15 04:15:36;;;;;;;19.30;13.27;;;18.30;99.90;;;;;;5055403;28;20786;-78
2023/08/15 04:18:07;;;;;;;16.60;12.38;;;18.50;99.90;;;;;;5033369;28;20429;-78
2023/08/15 04:20:39;;;;;;;17.17;12.75;;;18.50;99.90;;;;;;5030292;28;20482;-77
2023/08/15 04:23:05;;;;;;;17.27;12.95;;;18.50;99.90;;;;;;5043427;28;20785;-78
2023/08/15 04:25:33;;;;;;;17.92;13.55;;;18.40;99.90;;;;;;5044867;28;20434;-77
2023/08/15 04:27:59;;;;;;;18.30;13.25;;;18.40;99.90;;;;;;5042463;28;20965;-77
2023/08/15 04:30:25;;;;;;;18.42;13.38;;;18.20;99.90;;;;;;5025504;28;20423;-79
2023/08/15 04:32:50;;;;;;;16.10;13.35;;;18.20;99.90;;;;;;5047875;28;20459;-77
2023/08/15 04:35:16;;;;;;;17.90;13.90;;;18.20;99.90;;;;;;5055445;28;20422;-77
2023/08/15 04:37:44;;;;;;;17.63;13.32;;;18.10;99.90;;;;;;5071846;28;20420;-77
2023/08/15 04:40:13;;;;;;;21.23;14.20;;;18.10;99.90;;;;;;5037670;28;20541;-79
2023/08/15 04:42:40;;;;;;;17.53;13.60;;;18.30;99.90;;;;;;5054139;28;20510;-77
2023/08/15 04:45:06;;;;;;;17.45;13.07;;;18.20;99.90;;;;;;5048489;28;20564;-78
2023/08/15 04:47:32;;;;;;;19.50;13.50;;;18.20;99.90;;;;;;5029406;28;20432;-78
2023/08/15 04:49:58;;;;;;;20.35;13.65;;;18.00;99.90;;;;;;5026190;28;20477;-79
2023/08/15 04:52:25;;;;;;;18.67;12.85;;;18.40;99.90;;;;;;5037367;28;20478;-79
2023/08/15 04:54:51;;;;;;;20.77;13.82;;;18.20;99.90;;;;;;5035584;28;20763;-79
2023/08/15 04:57:16;;;;;;;18.35;13.45;;;18.20;99.90;;;;;;5003206;28;20428;-79
2023/08/15 04:59:42;;;;;;;18.20;12.93;;;18.20;99.90;;;;;;5027469;28;20411;-75
2023/08/15 05:02:08;;;;;;;17.67;13.33;;;18.30;99.90;;;;;;5035705;28;20503;-78
2023/08/15 05:04:34;;;;;;;17.20;12.90;;;18.10;99.90;;;;;;5036711;28;20459;-77
2023/08/15 05:07:00;;;;;;;17.10;12.50;;;17.80;99.90;;;;;;5054061;28;20420;-78
2023/08/15 05:09:29;;;;;;;16.07;12.37;;;18.10;99.90;;;;;;5034992;28;20473;-78
2023/08/15 05:11:55;;;;;;;17.40;13.40;;;18.00;99.90;;;;;;5029749;28;20424;-78
2023/08/15 05:14:22;;;;;;;17.20;13.10;;;17.90;99.90;;;;;;5050325;28;20506;-78
2023/08/15 05:16:48;;;;;;;19.10;12.93;;;17.70;99.90;;;;;;5056351;28;20419;-77
2023/08/15 05:19:14;;;;;;;16.83;12.90;;;17.90;99.90;;;;;;5055079;28;20428;-77
2023/08/15 05:21:41;;;;;;;17.42;12.88;;;17.70;99.90;;;;;;5035871;28;20510;-78
2023/08/15 05:24:07;;;;;;;17.40;12.23;;;18.00;99.90;;;;;;5038113;28;20496;-77
2023/08/15 05:26:33;;;;;;;16.88;12.18;;;18.00;99.90;;;;;;5033407;28;20431;-76
2023/08/15 05:28:59;;;;;;;17.60;10.73;;;18.00;99.90;;;;;;5036785;28;20462;-77
2023/08/15 05:31:25;;;;;;;15.90;10.70;;;18.10;99.90;;;;;;5038409;28;20439;-78
2023/08/15 05:33:50;;;;;;;16.67;10.70;;;18.20;99.90;;;;;;5038782;28;20462;-79
2023/08/15 05:36:16;;;;;;;14.95;10.82;;;18.20;99.90;;;;;;5034256;28;20415;-77
2023/08/15 05:38:42;;;;;;;16.65;10.68;;;18.20;99.90;;;;;;5029165;28;20966;-77
2023/08/15 05:41:07;;;;;;;17.83;11.60;;;17.90;99.90;;;;;;5019869;28;20442;-80
2023/08/15 05:43:33;;;;;;;16.63;10.77;;;18.00;99.90;;;;;;5034063;28;20454;-79
2023/08/15 05:45:59;;;;;;;15.52;11.02;;;18.00;99.90;;;;;;5055974;28;20849;-79
2023/08/15 05:48:24;;;;;;;15.80;11.32;;;18.10;99.90;;;;;;5052735;28;20455;-81
2023/08/15 05:50:50;;;;;;;16.73;11.13;;;18.00;99.90;;;;;;5028594;28;20838;-79
2023/08/15 05:53:16;;;;;;;15.90;10.90;;;18.40;99.90;;;;;;5055417;28;20420;-79
2023/08/15 05:55:45;;;;;;;13.53;10.60;;;18.10;99.90;;;;;;5044387;28;20916;-81
2023/08/15 05:58:10;;;;;;;16.08;11.18;;;18.10;99.90;;;;;;5027593;28;20427;-80
2023/08/15 06:00:37;;;;;;;15.40;10.68;;;18.00;99.90;;;;;;5037571;28;20781;-79
2023/08/15 06:03:04;;;;;;;15.43;10.57;;;18.10;99.90;;;;;;5031443;28;20433;-80
2023/08/15 06:05:30;;;;;;;16.83;10.95;;;18.30;99.90;;;;;;5053474;28;20922;-80
2023/08/15 06:07:56;;;;;;;15.50;11.10;;;18.10;99.90;;;;;;5072890;28;20791;-78
2023/08/15 06:10:23;;;;;;;16.52;10.23;;;18.20;99.90;;;;;;5048248;28;20418;-79
2023/08/15 06:12:49;;;;;;;17.10;9.82;;;17.40;99.90;;;;;;5053351;28;20434;-80
2023/08/15 06:15:15;;;;;;;17.95;9.80;;;18.30;99.90;;;;;;5034831;28;20423;-76
2023/08/15 06:17:41;;;;;;;15.43;9.35;;;18.30;99.90;;;;;;5057117;28;20759;-79
2023/08/15 06:20:08;;;;;;;14.37;8.87;;;18.50;99.90;;;;;;5053269;28;20942;-79
2023/08/15 06:22:34;;;;;;;14.30;8.95;;;18.70;99.90;;;;;;5056417;28;20407;-79
2023/08/15 06:24:59;;;;;;;15.38;9.10;;;18.70;99.90;;;;;;5051963;28;20428;-84
2023/08/15 06:27:25;;;;;;;13.50;8.73;;;18.90;99.90;;;;;;5042062;28;20436;-79
2023/08/15 06:29:51;;;;;;;14.10;8.63;;;18.90;99.90;;;;;;5035076;28;20425;-80
2023/08/15 06:32:33;;;;;;;12.85;7.63;;;19.10;99.90;;;;;;5043216;28;20867;-79
2023/08/15 06:35:06;;;;;;;12.35;7.35;;;19.10;99.90;;;;;;5015492;28;20419;-76
2023/08/15 06:37:32;;;;;;;13.93;6.63;;;19.70;99.90;;;;;;5037775;28;20421;-76
2023/08/15 06:39:58;;;;;;;16.10;6.97;;;19.40;99.90;;;;;;5050266;28;20923;-78
2023/08/15 06:42:23;;;;;;;14.00;6.57;;;19.50;99.90;;;;;;5068869;28;20491;-78
2023/08/15 06:44:49;;;;;;;15.02;6.70;;;19.90;99.90;;;;;;5063799;28;20425;-77
2023/08/15 06:47:15;;;;;;;13.67;5.40;;;20.00;99.90;;;;;;5054600;28;20438;-78
2023/08/15 06:49:40;;;;;;;11.67;5.40;;;19.90;99.90;;;;;;5039747;28;20976;-78
2023/08/15 06:52:09;;;;;;;10.50;4.88;;;20.00;99.90;;;;;;5056660;28;20403;-79
2023/08/15 06:54:36;;;;;;;11.75;4.97;;;20.20;99.90;;;;;;5036411;28;20425;-78
2023/08/15 06:57:02;;;;;;;11.37;4.70;;;20.60;99.90;;;;;;5036459;28;20419;-79
2023/08/15 06:59:28;;;;;;;14.95;4.80;;;20.20;99.90;;;;;;5053620;28;20506;-79
2023/08/15 07:01:54;;;;;;;11.30;4.60;;;20.70;99.90;;;;;;5073256;28;20836;-79
2023/08/15 07:04:20;;;;;;;10.75;4.22;;;20.50;99.90;;;;;;5030856;28;20413;-77
2023/08/15 07:06:46;;;;;;;10.40;4.10;;;20.70;99.90;;;;;;5036865;28;20783;-77
2023/08/15 07:09:12;;;;;;;11.65;4.65;;;20.60;99.90;;;;;;5068108;28;20419;-77
2023/08/15 07:11:37;;;;;;;12.32;4.47;;;20.70;99.90;;;;;;5065010;28;20475;-74
2023/08/15 07:14:03;;;;;;;10.47;4.00;;;21.00;99.90;;;;;;5019700;28;20424;-79
2023/08/15 07:16:29;;;;;;;11.57;4.43;;;20.60;99.90;;;;;;5048942;28;20418;-79
2023/08/15 07:18:55;;;;;;;11.27;4.47;;;19.20;99.90;;;;;;5041300;28;20764;-79
2023/08/15 07:21:20;;;;;;;10.68;4.38;;;20.80;99.90;;;;;;5029679;28;20428;-78
2023/08/15 07:23:46;;;;;;;15.33;4.57;;;21.10;99.90;;;;;;5066692;28;20487;-79
2023/08/15 07:26:13;;;;;;;8.97;3.93;;;21.30;99.90;;;;;;5051139;28;20508;-78
2023/08/15 07:28:39;;;;;;;9.45;3.72;;;21.10;99.90;;;;;;5068456;28;20921;-78
2023/08/15 07:31:05;;;;;;;12.57;4.20;;;21.70;99.90;;;;;;5043542;28;20408;-79
2023/08/15 07:33:31;;;;;;;10.00;3.88;;;21.90;99.90;;;;;;5063591;28;20426;-78
2023/08/15 07:35:57;;;;;;;10.68;3.92;;;21.50;99.90;;;;;;5044126;28;20412;-78
2023/08/15 07:38:23;;;;;;;13.40;4.00;;;22.00;99.90;;;;;;5040418;28;20423;-77
2023/08/15 07:40:49;;;;;;;10.30;3.78;;;21.50;99.90;;;;;;5070819;28;21788;-80
2023/08/15 07:43:15;;;;;;;7.57;3.42;;;21.70;99.90;;;;;;5033138;28;20435;-81
2023/08/15 07:45:41;;;;;;;11.20;3.85;;;21.80;99.90;;;;;;5034569;28;20422;-79
2023/08/15 07:48:06;;;;;;;11.50;4.00;;;22.00;99.90;;;;;;5058154;28;20427;-78
2023/08/15 07:50:32;;;;;;;10.90;4.10;;;22.00;99.90;;;;;;5023070;28;20444;-78
2023/08/15 07:52:58;;;;;;;8.68;3.63;;;21.70;99.90;;;;;;5040733;28;20495;-78
2023/08/15 07:55:25;;;;;;;10.95;3.97;;;21.30;99.90;;;;;;5053751;28;20483;-78
2023/08/15 07:57:51;;;;;;;9.90;3.90;;;21.30;99.90;;;;;;5028329;28;20423;-79
2023/08/15 08:00:17;;;;;;;9.43;3.40;;;21.00;99.90;;;;;;5038390;28;20415;-78
2023/08/15 08:02:44;;;;;;;10.13;3.33;;;21.40;99.90;;;;;;5062970;28;20429;-76
2023/08/15 08:05:11;;;;;;;9.98;3.63;;;21.50;99.90;;;;;;5027872;28;20949;-76
2023/08/15 08:07:39;;;;;;;8.73;3.40;;;21.80;99.90;;;;;;5031167;28;20940;-77
2023/08/15 08:10:06;;;;;;;10.73;3.28;;;22.10;99.90;;;;;;5065357;28;20421;-76
2023/08/15 08:12:31;;;;;;;11.95;3.60;;;22.30;99.90;;;;;;5044627;28;20430;-76
2023/08/15 08:14:57;;;;;;;9.30;3.63;;;22.50;99.90;;;;;;5051292;28;20982;-76
2023/08/15 08:17:23;;;;;;;11.13;3.58;;;22.60;99.90;;;;;;5032813;28;20456;-76
2023/08/15 08:19:49;;;;;;;8.60;2.85;;;22.90;99.90;;;;;;5050521;28;20500;-77
2023/08/15 08:22:15;;;;;;;5.13;2.50;;;23.00;99.90;;;;;;5037081;28;20577;-76
2023/08/15 08:24:41;;;;;;;7.17;2.40;;;23.30;99.90;;;;;;5052365;28;20479;-76
2023/08/15 08:27:07;;;;;;;4.88;2.08;;;23.40;99.90;;;;;;5054064;28;20420;-77
2023/08/15 08:29:36;;;;;;;6.65;2.53;;;23.60;99.90;;;;;;5027493;28;20417;-77
2023/08/15 08:32:02;;;;;;;9.17;3.10;;;21.50;99.90;;;;;;5030734;28;20923;-77
2023/08/15 08:34:28;;;;;;;6.13;2.40;;;23.50;99.90;;;;;;5045332;28;20427;-78
2023/08/15 08:36:53;;;;;;;6.03;2.40;;;23.60;99.90;;;;;;5036658;28;20447;-76
2023/08/15 08:39:19;;;;;;;7.67;2.27;;;23.90;99.90;;;;;;5050766;28;20461;-77
2023/08/15 08:41:45;;;;;;;5.93;2.42;;;23.90;99.90;;;;;;5034623;28;20459;-77
2023/08/15 08:44:12;;;;;;;9.88;2.35;;;24.00;99.90;;;;;;5036636;28;20419;-77
2023/08/15 08:46:39;;;;;;;6.82;2.45;;;23.90;99.90;;;;;;5039408;28;20421;-78
2023/08/15 08:49:06;;;;;;;4.63;2.17;;;24.10;99.90;;;;;;5029285;28;20964;-81
2023/08/15 08:51:32;;;;;;;6.53;2.20;;;24.40;99.90;;;;;;5043537;28;20478;-79
2023/08/15 08:53:58;;;;;;;6.78;2.10;;;24.60;99.90;;;;;;5063750;28;20401;-79
2023/08/15 08:56:25;;;;;;;5.10;2.05;;;24.50;99.90;;;;;;5040430;28;20423;-77
2023/08/15 08:59:11;;;;;;;7.10;2.30;;;24.60;99.90;;;;;;5045409;28;20447;-78
2023/08/15 09:01:39;;;;;;;6.88;2.45;;;23.80;99.90;;;;;;5046762;28;20423;-78
2023/08/15 09:04:05;;;;;;;6.47;2.20;;;23.80;99.90;;;;;;5030706;28;20912;-76
2023/08/15 09:06:31;;;;;;;6.38;2.20;;;23.90;99.90;;;;;;5031918;28;20423;-77
2023/08/15 09:08:58;;;;;;;5.80;2.22;;;23.90;99.90;;;;;;5026461;28;20415;-77
2023/08/15 09:11:34;;;;;;;6.35;2.28;;;23.90;99.90;;;;;;5022150;28;20976;-77
2023/08/15 09:14:05;;;;;;;5.57;1.90;;;24.00;99.90;;;;;;5068945;28;20415;-78
2023/08/15 09:16:32;;;;;;;5.90;2.20;;;24.10;99.90;;;;;;5032690;28;20907;-78
2023/08/15 09:19:04;;;;;;;5.78;2.40;;;23.70;99.90;;;;;;5024966;28;20914;-77
2023/08/15 09:21:30;;;;;;;6.75;2.30;;;23.90;99.90;;;;;;5033061;28;20424;-76
2023/08/15 09:23:57;;;;;;;7.78;2.40;;;23.90;99.90;;;;;;5027647;28;20428;-76
2023/08/15 09:26:23;;;;;;;5.53;2.50;;;23.30;99.90;;;;;;5036967;28;20424;-76
2023/08/15 09:28:49;;;;;;;5.15;2.28;;;23.10;99.90;;;;;;5048154;28;20425;-74
2023/08/15 09:31:15;;;;;;;10.52;2.70;;;23.10;99.90;;;;;;5035684;28;20420;-76
2023/08/15 09:33:42;;;;;;;7.25;2.60;;;23.10;99.90;;;;;;5041889;28;20762;-76
2023/08/15 09:36:11;;;;;;;7.95;2.83;;;22.80;99.90;;;;;;5049276;28;20475;-76
2023/08/15 09:38:37;;;;;;;7.78;2.90;;;23.00;99.90;;;;;;5049371;28;20425;-76
2023/08/15 09:41:03;;;;;;;6.32;2.30;;;23.00;99.90;;;;;;5041637;28;20416;-76
2023/08/15 09:43:32;;;;;;;7.65;2.70;;;22.90;99.90;;;;;;5047359;28;20419;-76
2023/08/15 09:46:02;;;;;;;6.40;2.08;;;22.80;99.90;;;;;;5034268;28;20763;-76
2023/08/15 09:48:29;;;;;;;7.82;2.30;;;23.00;99.90;;;;;;5044523;28;20429;-76
2023/08/15 09:50:55;;;;;;;5.15;2.00;;;22.70;99.90;;;;;;5028456;28;20416;-78
2023/08/15 09:53:25;;;;;;;6.25;2.20;;;23.10;99.90;;;;;;5038404;28;20420;-76
2023/08/15 09:55:51;;;;;;;7.05;2.22;;;23.30;99.90;;;;;;5036602;28;20507;-76
2023/08/15 09:58:18;;;;;;;5.80;2.10;;;23.30;99.90;;;;;;5044729;28;20788;-75
2023/08/15 10:00:51;;;;;;;6.67;2.23;;;23.20;99.90;;;;;;5052932;28;20435;-76
2023/08/15 10:03:19;;;;;;;5.20;2.20;;;23.20;99.90;;;;;;5049969;28;20417;-76
2023/08/15 10:05:53;;;;;;;6.88;2.90;;;23.90;99.90;;;;;;5065962;28;20579;-77
2023/08/15 10:08:20;;;;;;;7.97;2.50;;;24.00;99.90;;;;;;5052758;28;20942;-76
2023/08/15 10:10:50;;;;;;;7.20;2.40;;;24.20;99.90;;;;;;5057486;28;20899;-76
2023/08/15 10:13:22;;;;;;;7.07;2.20;;;24.20;99.90;;;;;;5009057;28;20852;-76
2023/08/15 10:15:48;;;;;;;7.72;2.40;;;24.20;99.90;;;;;;5013906;28;20776;-75
2023/08/15 10:18:14;;;;;;;6.35;1.95;;;22.10;99.90;;;;;;4994529;28;20427;-76
2023/08/15 10:20:40;;;;;;;4.82;2.10;;;24.20;99.90;;;;;;5025101;28;20520;-76
2023/08/15 10:23:10;;;;;;;4.23;1.90;;;24.50;99.90;;;;;;4994477;28;20931;-75
2023/08/15 10:25:39;;;;;;;5.60;2.28;;;24.80;99.90;;;;;;5010768;28;20498;-75
2023/08/15 10:28:11;;;;;;;4.65;1.60;;;24.50;99.90;;;;;;4994183;28;20492;-75
2023/08/15 10:30:42;;;;;;;6.00;1.90;;;24.50;99.90;;;;;;5000522;28;20538;-75
2023/08/15 10:33:16;;;;;;;4.10;1.80;;;24.60;99.90;;;;;;5012049;28;20493;-75
2023/08/15 10:35:54;;;;;;;4.55;2.00;;;24.60;99.90;;;;;;5011598;28;20911;-75
2023/08/15 10:38:51;;;;;;;5.88;2.10;;;24.50;99.90;;;;;;4997915;28;20559;-76
2023/08/15 10:41:17;;;;;;;7.40;2.30;;;24.50;99.90;;;;;;5016092;28;20415;-76
2023/08/15 10:43:59;;;;;;;4.75;1.98;;;24.50;99.90;;;;;;5005752;28;20413;-75
2023/08/15 10:46:30;;;;;;;5.30;2.20;;;24.70;99.90;;;;;;5037319;28;20849;-75
2023/08/15 10:49:04;;;;;;;5.82;2.17;;;24.80;99.90;;;;;;5027890;28;20429;-75
2023/08/15 10:51:32;;;;;;;5.90;2.00;;;24.80;99.90;;;;;;5050788;28;20415;-75
2023/08/15 10:54:03;;;;;;;6.32;2.33;;;24.90;99.90;;;;;;5039439;28;20482;-76
2023/08/15 10:56:31;;;;;;;4.78;1.88;;;24.90;99.90;;;;;;5053981;28;20958;-76
2023/08/15 10:58:58;;;;;;;4.30;1.77;;;24.90;99.90;;;;;;5072174;28;20450;-76
2023/08/15 11:01:26;;;;;;;5.60;2.30;;;25.20;99.90;;;;;;5048633;28;20475;-76
2023/08/15 11:03:54;;;;;;;4.53;1.80;;;25.40;99.90;;;;;;5028072;28;20420;-76
2023/08/15 11:06:21;;;;;;;6.53;2.37;;;25.40;99.90;;;;;;5047988;28;20442;-75
2023/08/15 11:08:49;;;;;;;4.70;2.00;;;25.60;99.90;;;;;;5047914;28;20423;-76
2023/08/15 11:11:16;;;;;;;4.57;2.00;;;25.60;99.90;;;;;;5057156;28;20419;-75
2023/08/15 11:13:44;;;;;;;6.63;2.40;;;25.40;99.90;;;;;;5054455;28;20425;-75
2023/08/15 11:16:11;;;;;;;7.60;2.58;;;25.30;99.90;;;;;;5034146;28;20423;-75
2023/08/15 11:18:37;;;;;;;5.55;2.40;;;25.40;99.90;;;;;;5052066;28;21838;-76
2023/08/15 11:21:08;;;;;;;5.50;2.40;;;25.20;99.90;;;;;;5045924;28;20427;-75
2023/08/15 11:23:34;;;;;;;7.20;2.08;;;25.40;99.90;;;;;;5040880;28;20413;-76
2023/08/15 11:26:04;;;;;;;6.77;2.13;;;25.30;99.90;;;;;;5014713;28;20842;-75
2023/08/15 11:28:30;;;;;;;6.32;2.08;;;25.40;99.90;;;;;;5045009;28;20502;-76
2023/08/15 11:30:57;;;;;;;4.47;2.08;;;25.40;99.90;;;;;;5051898;28;20407;-76
2023/08/15 11:33:24;;;;;;;4.87;1.77;;;25.60;99.90;;;;;;5052574;28;20413;-75
2023/08/15 11:35:50;;;;;;;6.00;2.40;;;25.60;99.90;;;;;;5043163;28;20424;-75
2023/08/15 11:38:20;;;;;;;7.60;2.28;;;25.50;99.90;;;;;;5033924;28;20925;-74
2023/08/15 11:40:45;;;;;;;6.82;2.30;;;25.50;99.90;;;;;;5043303;28;20420;-76
2023/08/15 11:43:12;;;;;;;5.40;2.67;;;25.50;99.90;;;;;;5055483;28;20404;-76
2023/08/15 11:45:41;;;;;;;4.78;2.20;;;25.30;99.90;;;;;;5044726;28;20430;-76
2023/08/15 11:48:09;;;;;;;6.78;2.42;;;25.40;99.90;;;;;;5021045;28;20581;-76
2023/08/15 11:50:35;;;;;;;5.43;2.50;;;25.50;99.90;;;;;;5051454;28;20515;-76
2023/08/15 11:53:08;;;;;;;6.30;2.72;;;25.30;99.90;;;;;;5037524;28;20808;-76
2023/08/15 11:55:35;;;;;;;5.95;2.38;;;25.30;99.90;;;;;;5041793;28;20529;-76
2023/08/15 11:58:02;;;;;;;6.45;2.75;;;25.40;99.90;;;;;;5029416;28;20450;-76
2023/08/15 12:00:27;;;;;;;6.00;2.53;;;25.30;99.90;;;;;;5035253;28;20434;-75
2023/08/15 12:02:54;;;;;;;7.43;2.83;;;25.40;99.90;;;;;;5054071;28;20420;-75
2023/08/15 12:05:21;;;;;;;7.22;2.80;;;24.00;99.90;;;;;;5051970;28;20915;-75
2023/08/15 12:07:48;;;;;;;6.50;2.90;;;25.40;99.90;;;;;;5038073;28;20940;-73
2023/08/15 12:10:15;;;;;;;5.97;2.77;;;25.40;99.90;;;;;;5051001;28;20425;-75
2023/08/15 12:12:46;;;;;;;6.37;3.10;;;25.50;99.90;;;;;;5056000;28;20501;-76
2023/08/15 12:15:14;;;;;;;7.15;3.08;;;25.30;99.90;;;;;;5059055;28;20769;-75
2023/08/15 12:17:40;;;;;;;7.55;3.40;;;25.10;99.90;;;;;;5051680;28;20427;-75
2023/08/15 12:20:09;;;;;;;8.50;3.15;;;25.20;99.90;;;;;;5048975;28;20423;-76
2023/08/15 12:22:35;;;;;;;6.03;2.72;;;25.20;99.90;;;;;;5043557;28;20516;-75
2023/08/15 12:25:01;;;;;;;5.45;2.80;;;25.20;99.90;;;;;;5048614;28;20900;-75
2023/08/15 12:27:27;;;;;;;6.82;2.92;;;25.00;99.90;;;;;;5023071;28;20512;-75
2023/08/15 12:29:53;;;;;;;9.43;2.90;;;24.70;99.90;;;;;;5043111;28;20421;-76
2023/08/15 12:32:20;;;;;;;11.63;2.78;;;24.80;99.90;;;;;;5047443;28;20435;-76
2023/08/15 12:34:46;;;;;;;6.10;1.70;;;24.40;99.90;;;;;;5041373;28;20418;-75